Mayflower, Arkansas
Current Conditions -  °F | °C
As of 2:58 AM on Thursday 18 Dec 2014 (Local Time) from KLRF Reporting Station
Light Rain Light Rain  
Wind Chill: 32°   Ceiling: 4900
Heat Index: 36°   Visibility: 10mi
Dew Point: 35°   Wind: 6mph
Humidity: 96%   Direction: 60°ENE
Pressure: 30.22"   Gusts: NA
Location:  34.96°N, 92.43°W
Report Text: KLRF 180858Z AUTO 06005KT 10SM -RA FEW021 OVC049 02/02 A3022 RMK AO2 RAE0825B0854DZB0825E0828 SLP238 P0001 60008 T00240018 57020
Loading
Personal Weather Stations






























Interactive Weather Map New forecast layout! Learn more

10-Day Weather Forecast

Advertisements
Track Severe Weather on mobile